Muscotah, Kansas
Current Conditions -  °F | °C
As of 5:53 AM on Sunday 25 Jan 2015 (Local Time) from KTOP Reporting Station
Overcast Overcast  
Wind Chill: 34°   Ceiling: 2800
Heat Index: 44°   Visibility: 10mi
Dew Point: 34°   Wind: 28mph
Humidity: 68%   Direction: 310°NW
Pressure: 29.72"   Gusts: 35mph
Location:  39.55°N, 95.52°W
Report Text: KTOP 251153Z AUTO 31024G30KT 10SM OVC028 07/01 A2972 RMK AO2 PK WND 31032/1058 SLP064 60000 T00670011 10094 20067 53008
Loading
Personal Weather Stations






























Interactive Weather Map New forecast layout! Learn more

10-Day Weather Forecast

Advertisements
Track Severe Weather on mobile